Time;durP1;ratioP1;P1;durP2;ratioP2;P2;SDS_P1;SDS_P2;PMS_P1;PMS_P2;Temp;Humidity;BMP_temperature;BMP_pressure;BME280_temperature;BME280_humidity;BME280_pressure;Samples;Min_cycle;Max_cycle;Signal;HPM_P1;HPM_P2
2022/03/03 00:01:47;;;;;;;31.33;21.17;;;8.00;99.90;;;8.12;47.51;101871.66;5095023;28;20459;-69
2022/03/03 00:04:15;;;;;;;33.28;22.15;;;8.00;99.90;;;8.19;47.96;101873.56;5094929;28;20072;-68
2022/03/03 00:06:44;;;;;;;30.70;21.75;;;8.00;99.90;;;8.17;47.81;101870.00;5094661;28;20101;-68
2022/03/03 00:09:13;;;;;;;28.50;21.20;;;8.00;99.90;;;8.19;47.63;101870.03;5094688;28;20485;-68
2022/03/03 00:11:42;;;;;;;30.92;21.83;;;8.00;99.90;;;8.17;47.78;101863.84;5094704;28;20481;-67
2022/03/03 00:14:12;;;;;;;29.52;22.15;;;8.00;99.90;;;8.18;47.49;101868.28;5094776;28;20430;-68
2022/03/03 00:16:40;;;;;;;29.17;20.45;;;8.00;99.90;;;8.08;47.33;101854.00;5094762;28;20418;-67
2022/03/03 00:19:09;;;;;;;30.08;21.23;;;8.00;99.90;;;8.24;47.60;101868.41;5094420;28;20069;-69
2022/03/03 00:21:37;;;;;;;30.95;21.02;;;8.00;99.90;;;8.00;47.47;101826.63;5094338;28;20101;-68
2022/03/03 00:24:06;;;;;;;27.75;20.23;;;8.10;99.90;;;8.16;47.18;101846.28;5094215;28;20059;-68
2022/03/03 00:26:35;;;;;;;28.45;20.77;;;8.10;99.90;;;8.34;46.98;101861.59;5094591;28;20036;-68
2022/03/03 00:29:03;;;;;;;28.10;20.80;;;8.20;99.90;;;8.41;47.23;101863.50;5094232;28;20482;-68
2022/03/03 00:31:34;;;;;;;30.77;21.30;;;8.20;99.90;;;8.40;47.00;101859.09;5094186;28;20127;-68
2022/03/03 00:34:02;;;;;;;32.60;20.42;;;8.20;99.90;;;8.23;46.72;101857.84;5094060;28;20052;-68
2022/03/03 00:36:31;;;;;;;30.65;21.17;;;8.20;99.90;;;7.90;47.50;101863.25;5094063;28;20048;-68
2022/03/03 00:38:59;;;;;;;30.98;21.35;;;7.90;99.90;;;7.70;47.80;101856.66;5094312;28;20636;-67
2022/03/03 00:41:27;;;;;;;29.67;20.35;;;7.60;99.90;;;7.84;47.87;101863.13;5076099;28;20485;-68
2022/03/03 00:43:56;;;;;;;31.98;20.88;;;7.60;99.90;;;7.62;47.95;101855.59;5093560;28;20044;-68
2022/03/03 00:46:25;;;;;;;29.60;20.38;;;7.50;99.90;;;7.68;47.94;101846.09;5094143;28;20036;-68
2022/03/03 00:48:55;;;;;;;29.50;20.70;;;7.50;99.90;;;7.79;47.89;101855.13;5094125;28;20384;-68
2022/03/03 00:51:24;;;;;;;27.70;19.55;;;7.60;99.90;;;7.71;47.54;101840.88;5093802;28;20048;-68
2022/03/03 00:53:52;;;;;;;25.13;18.33;;;7.60;99.90;;;7.86;47.90;101857.03;5094016;28;20564;-68
2022/03/03 00:56:21;;;;;;;27.25;20.15;;;7.70;99.90;;;7.83;47.73;101845.53;5094038;28;20036;-68
2022/03/03 00:58:50;;;;;;;31.17;21.40;;;7.70;99.90;;;7.84;47.76;101832.41;5093927;28;20451;-68
2022/03/03 01:01:19;;;;;;;28.02;20.25;;;7.70;99.90;;;7.62;47.60;101798.56;5094042;28;20051;-68
2022/03/03 01:03:48;;;;;;;27.50;19.85;;;7.70;99.90;;;7.92;47.67;101841.34;5093589;28;20065;-68
2022/03/03 01:06:18;;;;;;;30.70;20.65;;;7.70;99.90;;;7.61;47.46;101811.66;5093487;28;20567;-68
2022/03/03 01:08:46;;;;;;;29.90;20.30;;;7.70;99.90;;;7.71;47.86;101843.53;5093643;28;20048;-67
2022/03/03 01:11:14;;;;;;;28.48;20.38;;;7.60;99.90;;;7.61;48.02;101830.09;5093568;28;20032;-68
2022/03/03 01:13:43;;;;;;;28.15;19.92;;;7.50;99.90;;;7.56;47.80;101840.53;5093529;28;20052;-68
2022/03/03 01:16:11;;;;;;;27.52;19.70;;;7.50;99.90;;;7.47;48.34;101837.66;5093466;28;20464;-68
2022/03/03 01:18:42;;;;;;;27.77;20.13;;;7.30;99.90;;;7.20;48.60;101832.66;5093662;28;20080;-68
2022/03/03 01:21:10;;;;;;;28.42;19.92;;;7.20;99.90;;;7.22;48.94;101830.94;5093672;28;20443;-68
2022/03/03 01:23:40;;;;;;;28.75;20.48;;;7.10;99.90;;;7.12;48.93;101826.28;5093267;28;20441;-68
2022/03/03 01:26:08;;;;;;;30.43;20.60;;;7.00;99.90;;;7.12;49.03;101822.81;5093365;28;20064;-68
2022/03/03 01:28:37;;;;;;;33.00;20.17;;;7.00;99.90;;;7.20;49.22;101827.38;5093204;28;20752;-68
2022/03/03 01:31:05;;;;;;;23.85;18.75;;;7.00;99.90;;;7.11;49.33;101821.00;5093569;28;20127;-68
2022/03/03 01:33:34;;;;;;;27.08;20.10;;;7.00;99.90;;;6.93;49.61;101813.53;5075605;28;20456;-68
2022/03/03 01:36:02;;;;;;;28.05;20.45;;;6.80;99.90;;;6.69;49.86;101807.66;5093235;28;20040;-68
2022/03/03 01:38:31;;;;;;;29.52;19.77;;;6.70;99.90;;;6.78;50.04;101807.00;5093417;28;20072;-68
2022/03/03 01:41:01;;;;;;;29.67;20.52;;;6.60;99.90;;;6.63;50.33;101791.72;5093355;28;20443;-68
2022/03/03 01:43:29;;;;;;;28.25;20.02;;;6.60;99.90;;;6.50;50.94;101786.13;5093527;28;20040;-68
2022/03/03 01:45:58;;;;;;;27.00;20.00;;;6.50;99.90;;;6.70;50.86;101793.66;5093003;28;20059;-68
2022/03/03 01:48:26;;;;;;;27.02;19.58;;;6.50;99.90;;;6.73;50.54;101792.88;5092974;28;20060;-68
2022/03/03 01:50:55;;;;;;;31.90;20.40;;;6.60;99.90;;;6.70;50.26;101763.84;5093069;28;20040;-70
2022/03/03 01:53:23;;;;;;;26.65;20.48;;;6.70;99.90;;;6.96;50.20;101789.97;5092980;28;20041;-68
2022/03/03 01:55:53;;;;;;;26.73;20.55;;;6.80;99.90;;;6.73;50.35;101777.09;5078171;28;20076;-68
2022/03/03 01:58:22;;;;;;;27.37;19.03;;;6.70;99.90;;;6.67;50.26;101783.09;5097472;28;20048;-68
2022/03/03 02:00:52;;;;;;;27.88;20.65;;;6.60;99.90;;;6.57;50.76;101774.91;5097400;28;20043;-68
2022/03/03 02:03:21;;;;;;;29.55;20.75;;;6.50;99.90;;;6.56;50.78;101773.13;5097088;28;20428;-68
2022/03/03 02:05:49;;;;;;;27.15;21.13;;;6.50;99.90;;;6.50;50.98;101757.22;5079101;28;20052;-67
2022/03/03 02:08:18;;;;;;;30.10;20.63;;;6.40;99.90;;;6.21;51.31;101733.66;5097158;28;20052;-68
2022/03/03 02:10:47;;;;;;;29.20;19.80;;;6.30;99.90;;;6.28;51.51;101754.00;5096787;28;20550;-68
2022/03/03 02:13:16;;;;;;;29.40;19.48;;;6.30;99.90;;;6.37;51.73;101755.97;5097149;28;20123;-68
2022/03/03 02:15:52;;;;;;;29.10;20.50;;;6.20;99.90;;;6.21;51.79;101728.41;5096797;28;20042;-68
2022/03/03 02:18:21;;;;;;;27.77;20.60;;;6.30;99.90;;;6.38;51.92;101757.78;5097125;28;20101;-67
2022/03/03 02:20:51;;;;;;;29.10;20.55;;;6.30;99.90;;;6.40;51.73;101758.69;5096963;28;20052;-68
2022/03/03 02:23:19;;;;;;;29.10;20.90;;;6.30;99.90;;;6.19;52.11;101772.13;5096906;28;20043;-68
2022/03/03 02:25:48;;;;;;;29.52;20.35;;;6.20;99.90;;;6.19;52.14;101748.50;5096569;28;20123;-69
2022/03/03 02:28:16;;;;;;;29.13;21.88;;;6.10;99.90;;;5.88;52.81;101731.88;5097317;28;20469;-68
2022/03/03 02:30:44;;;;;;;32.17;21.67;;;5.90;99.90;;;6.01;52.94;101731.34;5096840;28;20069;-68
2022/03/03 02:33:13;;;;;;;31.20;21.70;;;6.00;99.90;;;6.14;52.64;101742.22;5096480;28;20395;-68
2022/03/03 02:35:41;;;;;;;29.83;21.33;;;6.00;99.90;;;6.13;52.48;101750.97;5096550;28;20498;-68
2022/03/03 02:38:11;;;;;;;32.03;21.97;;;6.00;99.90;;;6.05;52.86;101742.00;5078446;28;20083;-68
2022/03/03 02:40:40;;;;;;;34.03;21.92;;;6.00;99.90;;;6.01;52.71;101748.00;5096637;28;20093;-68
2022/03/03 02:43:08;;;;;;;30.53;21.60;;;5.90;99.90;;;6.13;52.97;101750.97;5096576;28;20468;-69
2022/03/03 02:45:37;;;;;;;27.37;21.30;;;6.00;99.90;;;6.24;52.41;101748.63;5096355;28;20085;-68
2022/03/03 02:48:05;;;;;;;30.47;21.70;;;6.10;99.90;;;6.10;53.05;101740.38;5078290;28;20094;-68
2022/03/03 02:50:34;;;;;;;26.48;19.70;;;6.00;99.90;;;6.13;52.74;101737.84;5096149;28;20071;-70
2022/03/03 02:53:02;;;;;;;29.85;21.45;;;6.00;99.90;;;6.20;52.64;101737.16;5096434;28;20052;-67
2022/03/03 02:55:32;;;;;;;28.50;21.02;;;6.10;99.90;;;6.36;52.71;101738.44;5096192;28;20044;-68
2022/03/03 02:58:00;;;;;;;31.90;21.98;;;6.20;99.90;;;6.21;52.46;101720.53;5096333;28;20101;-68
2022/03/03 03:00:38;;;;;;;32.90;21.27;;;6.20;99.90;;;6.24;52.98;101732.88;5095967;28;20557;-67
2022/03/03 03:03:07;;;;;;;27.33;20.47;;;6.20;99.90;;;6.16;53.09;101711.66;5095927;28;20098;-67
2022/03/03 03:05:36;;;;;;;29.87;20.60;;;6.10;99.90;;;6.30;53.12;101715.53;5095382;28;20044;-68
2022/03/03 03:08:05;;;;;;;28.25;20.63;;;6.20;99.90;;;6.47;53.13;101720.31;5076814;28;20048;-68
2022/03/03 03:10:35;;;;;;;28.52;20.45;;;6.30;99.90;;;6.37;53.04;101714.84;5094737;28;20063;-68
2022/03/03 03:13:04;;;;;;;28.25;20.45;;;6.30;99.90;;;6.46;53.05;101697.53;5094637;28;20060;-68
2022/03/03 03:15:34;;;;;;;29.70;21.35;;;6.40;99.90;;;6.56;53.00;101716.22;5094833;28;20040;-68
2022/03/03 03:18:10;;;;;;;31.85;21.13;;;6.40;99.90;;;6.48;52.94;101695.84;5094802;28;20501;-68
2022/03/03 03:20:39;;;;;;;29.50;20.73;;;6.50;99.90;;;6.54;52.98;101711.75;5095038;28;20044;-68
2022/03/03 03:23:08;;;;;;;28.73;21.53;;;6.50;99.90;;;6.62;53.15;101715.47;5093392;28;20485;-68
2022/03/03 03:25:39;;;;;;;29.65;21.45;;;6.50;99.90;;;6.49;53.02;101722.16;5094394;28;20117;-69
2022/03/03 03:28:08;;;;;;;29.27;20.73;;;6.50;99.90;;;6.20;53.32;101665.34;5094598;28;20101;-68
2022/03/03 03:30:36;;;;;;;31.88;21.45;;;6.40;99.90;;;6.08;53.90;101714.91;5094340;28;20070;-68
2022/03/03 03:33:05;;;;;;;30.63;21.25;;;6.20;99.90;;;5.96;54.51;101676.06;5094203;28;20044;-68
2022/03/03 03:35:33;;;;;;;29.85;22.10;;;6.10;99.90;;;6.28;54.43;101721.59;5094210;28;20070;-70
2022/03/03 03:38:02;;;;;;;31.33;21.50;;;6.10;99.90;;;6.14;54.39;101715.06;5094519;28;20044;-68
2022/03/03 03:40:31;;;;;;;30.75;22.05;;;6.10;99.90;;;6.03;54.66;101708.66;5094139;28;20048;-68
2022/03/03 03:43:01;;;;;;;32.58;22.27;;;6.00;99.90;;;5.93;54.68;101720.63;5094090;28;20072;-68
2022/03/03 03:45:31;;;;;;;30.40;22.05;;;5.90;99.90;;;5.91;55.40;101717.09;5094582;28;20048;-68
2022/03/03 03:48:00;;;;;;;37.88;22.95;;;5.80;99.90;;;5.66;55.49;101706.69;5094076;28;20093;-68
2022/03/03 03:50:28;;;;;;;35.33;22.57;;;5.70;99.90;;;5.39;56.14;101677.94;5094297;28;20044;-68
2022/03/03 03:52:57;;;;;;;33.77;22.60;;;5.50;99.90;;;5.71;56.22;101704.22;5094243;28;20449;-68
2022/03/03 03:55:25;;;;;;;30.33;21.70;;;5.60;99.90;;;5.77;56.21;101707.03;5093916;28;20040;-68
2022/03/03 03:57:54;;;;;;;32.27;23.10;;;5.70;99.90;;;5.60;56.02;101663.63;5093843;28;20047;-68
2022/03/03 04:00:24;;;;;;;32.37;22.20;;;5.70;99.90;;;5.96;56.19;101710.22;5076139;28;20063;-68
2022/03/03 04:02:52;;;;;;;30.52;22.20;;;5.80;99.90;;;5.92;55.76;101704.84;5094103;28;20484;-68
2022/03/03 04:05:21;;;;;;;31.77;22.50;;;5.80;99.90;;;5.91;56.28;101709.19;5093942;28;20040;-68
2022/03/03 04:07:50;;;;;;;31.90;23.03;;;5.80;99.90;;;5.91;55.92;101706.56;5053459;28;1155763;-68
2022/03/03 04:10:19;;;;;;;30.73;22.53;;;5.80;99.90;;;5.86;56.02;101708.19;5076492;28;20113;-68
2022/03/03 04:12:47;;;;;;;32.77;22.80;;;5.80;99.90;;;5.70;56.37;101684.94;5094562;28;20555;-68
2022/03/03 04:15:16;;;;;;;35.33;24.23;;;5.70;99.90;;;5.67;56.49;101684.84;5094450;28;20131;-68
2022/03/03 04:17:46;;;;;;;34.07;23.10;;;5.70;99.90;;;5.76;56.70;101685.13;5094170;28;20044;-70
2022/03/03 04:20:14;;;;;;;29.90;21.67;;;5.60;99.90;;;5.82;56.40;101690.56;5076555;28;20052;-68
2022/03/03 04:22:43;;;;;;;32.50;21.92;;;5.70;99.90;;;5.72;56.58;101688.50;5076620;28;20083;-67
2022/03/03 04:25:11;;;;;;;32.30;23.55;;;5.60;99.90;;;5.59;56.59;101683.75;5076318;28;20413;-68
2022/03/03 04:27:40;;;;;;;33.00;23.17;;;5.60;99.90;;;5.40;57.32;101681.47;5076333;28;20048;-68
2022/03/03 04:30:11;;;;;;;34.10;25.13;;;5.40;99.90;;;5.19;57.71;101667.69;5094435;28;20461;-68
2022/03/03 04:32:40;;;;;;;34.50;23.33;;;5.30;99.90;;;5.16;58.05;101668.50;5094276;28;20124;-67
2022/03/03 04:35:11;;;;;;;35.97;25.03;;;5.20;99.90;;;5.32;57.95;101677.72;5094115;28;20048;-67
2022/03/03 04:37:40;;;;;;;34.33;25.00;;;5.20;99.90;;;5.25;58.16;101678.34;5076303;28;20067;-68
2022/03/03 04:40:10;;;;;;;31.57;23.63;;;5.20;99.90;;;5.21;57.81;101674.75;5094335;28;20371;-68
2022/03/03 04:42:38;;;;;;;34.57;26.17;;;5.20;99.90;;;5.17;58.39;101677.22;5093993;28;20052;-68
2022/03/03 04:45:08;;;;;;;37.73;25.07;;;5.10;99.90;;;4.69;59.13;101637.31;5093989;28;20493;-68
2022/03/03 04:47:36;;;;;;;37.28;24.08;;;4.90;99.90;;;4.42;58.91;101603.28;5093804;28;20497;-69
2022/03/03 04:50:07;;;;;;;37.47;25.63;;;4.90;99.90;;;4.86;59.27;101682.41;5076158;28;20095;-68
2022/03/03 04:52:37;;;;;;;34.10;24.73;;;4.80;99.90;;;4.85;59.62;101675.38;5094182;28;20065;-68
2022/03/03 04:55:07;;;;;;;31.65;23.83;;;4.80;99.90;;;4.48;60.08;101652.34;5093825;28;20493;-67
2022/03/03 04:57:35;;;;;;;35.20;25.30;;;4.70;99.90;;;4.79;59.89;101675.16;5075821;28;20056;-69
2022/03/03 05:00:06;;;;;;;32.73;23.70;;;4.70;99.90;;;4.55;60.47;101664.78;5093690;28;20046;-68
2022/03/03 05:02:35;;;;;;;41.43;26.10;;;4.60;99.90;;;4.79;60.15;101683.03;5093670;28;20071;-68
2022/03/03 05:05:05;;;;;;;35.53;25.27;;;4.70;99.90;;;4.89;60.05;101679.88;5093773;28;20044;-70
2022/03/03 05:07:35;;;;;;;35.45;25.75;;;4.70;99.90;;;4.74;60.30;101679.38;5093430;28;20528;-70
2022/03/03 05:10:06;;;;;;;36.38;25.25;;;4.70;99.90;;;4.81;60.62;101687.50;5093554;28;20059;-67
2022/03/03 05:12:34;;;;;;;34.15;23.98;;;4.70;99.90;;;4.76;60.63;101677.72;5093601;28;20054;-68
2022/03/03 05:15:03;;;;;;;34.47;24.93;;;4.60;99.90;;;4.86;60.22;101678.03;5093650;28;20071;-68
2022/03/03 05:17:32;;;;;;;37.57;24.93;;;4.70;99.90;;;4.82;59.84;101643.84;5093541;28;20047;-68
2022/03/03 05:20:00;;;;;;;35.67;26.73;;;4.80;99.90;;;5.21;59.63;101693.13;5094829;28;20068;-68
2022/03/03 05:22:30;;;;;;;36.80;25.73;;;5.00;99.90;;;4.96;59.39;101655.59;5094263;28;20482;-70
2022/03/03 05:25:00;;;;;;;34.07;25.03;;;5.00;99.90;;;4.85;59.79;101641.28;5093350;28;20036;-69
2022/03/03 05:27:28;;;;;;;35.42;24.92;;;5.00;99.90;;;5.15;59.54;101679.81;5093647;28;20118;-69
2022/03/03 05:29:57;;;;;;;35.17;25.77;;;5.10;99.90;;;4.91;59.52;101662.47;5093961;28;20043;-68
2022/03/03 05:32:27;;;;;;;35.50;25.63;;;4.90;99.90;;;4.99;59.72;101679.31;5093691;28;20496;-69
2022/03/03 05:34:55;;;;;;;34.23;25.37;;;4.90;99.90;;;4.81;59.62;101624.59;5093392;28;20044;-69
2022/03/03 05:37:25;;;;;;;36.27;26.00;;;4.90;99.90;;;4.98;59.59;101632.97;5093498;28;20044;-69
2022/03/03 05:39:54;;;;;;;38.00;25.52;;;5.10;99.90;;;5.25;59.44;101650.41;5093352;28;20581;-69
2022/03/03 05:42:24;;;;;;;37.87;24.37;;;5.30;99.90;;;5.53;58.93;101675.72;5093092;28;20044;-69
2022/03/03 05:44:54;;;;;;;30.67;24.25;;;5.40;99.90;;;5.63;58.79;101679.50;5093514;28;20115;-69
2022/03/03 05:47:22;;;;;;;37.63;26.10;;;5.50;99.90;;;5.54;58.80;101651.25;5093311;28;20122;-69
2022/03/03 05:49:54;;;;;;;35.13;24.77;;;5.50;99.90;;;5.74;58.67;101676.31;5093709;28;20064;-69
2022/03/03 05:52:22;;;;;;;41.40;25.97;;;5.60;99.90;;;5.61;58.42;101658.47;5093359;28;20482;-69
2022/03/03 05:54:52;;;;;;;35.70;25.47;;;5.60;99.90;;;5.69;58.18;101666.53;5093002;28;20055;-69
2022/03/03 05:57:28;;;;;;;34.93;25.37;;;5.60;99.90;;;5.74;58.22;101675.41;5093199;28;20093;-69
2022/03/03 06:00:04;;;;;;;40.67;25.87;;;5.60;99.90;;;5.80;57.88;101666.00;5093224;28;20050;-69
2022/03/03 06:02:47;;;;;;;35.27;25.27;;;5.60;99.90;;;5.87;58.13;101673.22;5092949;28;20056;-69
2022/03/03 06:05:19;;;;;;;37.50;26.30;;;5.70;99.90;;;5.84;58.09;101673.13;5092900;28;20048;-69
2022/03/03 06:07:54;;;;;;;37.37;24.87;;;5.70;99.90;;;5.83;58.15;101687.09;5092807;28;20109;-69
2022/03/03 06:10:25;;;;;;;35.87;25.37;;;5.70;99.90;;;5.65;58.38;101665.56;5093351;28;20127;-69
2022/03/03 06:13:07;;;;;;;40.27;26.30;;;5.60;99.90;;;5.20;58.59;101620.56;5093151;28;20108;-69
2022/03/03 06:15:38;;;;;;;35.70;26.57;;;5.50;99.90;;;5.22;58.98;101683.53;5092800;28;20068;-70
2022/03/03 06:18:09;;;;;;;36.30;25.87;;;5.20;99.90;;;5.14;59.55;101656.19;5092737;28;20048;-69
2022/03/03 06:20:38;;;;;;;39.07;27.47;;;5.20;99.90;;;5.26;59.09;101691.53;5092746;28;20036;-69
2022/03/03 06:23:07;;;;;;;35.10;25.83;;;5.20;99.90;;;5.37;59.17;101694.47;5092641;28;20078;-69
2022/03/03 06:25:35;;;;;;;36.87;24.93;;;5.20;99.90;;;5.41;59.08;101693.72;5092624;28;20168;-69
2022/03/03 06:28:05;;;;;;;36.87;24.83;;;5.20;99.90;;;5.34;58.90;101662.91;5092909;28;20040;-69
2022/03/03 06:30:34;;;;;;;36.95;25.58;;;5.30;99.90;;;4.56;58.77;101554.84;5092677;28;20048;-69
2022/03/03 06:33:03;;;;;;;38.13;25.70;;;5.30;99.90;;;5.19;59.29;101686.94;5092841;28;20052;-69
2022/03/03 06:35:35;;;;;;;40.17;27.13;;;5.20;99.90;;;5.12;59.90;101686.69;5092866;28;20036;-69
2022/03/03 06:38:06;;;;;;;43.27;26.70;;;5.10;99.90;;;5.11;59.87;101684.94;5074973;28;20052;-70
2022/03/03 06:40:36;;;;;;;50.30;28.20;;;5.00;99.90;;;4.97;60.05;101670.50;5093562;28;20404;-69
2022/03/03 06:43:06;;;;;;;37.87;26.80;;;5.00;99.90;;;5.00;60.64;101689.84;5096500;28;20040;-69
2022/03/03 06:45:34;;;;;;;38.53;25.70;;;4.90;99.90;;;4.88;60.20;101659.75;5096543;28;20119;-69
2022/03/03 06:48:06;;;;;;;36.20;26.53;;;5.00;99.90;;;5.16;60.77;101678.09;5096130;28;20044;-69
2022/03/03 06:50:37;;;;;;;37.43;25.47;;;5.00;99.90;;;5.18;60.51;101713.13;5078238;28;20156;-70
2022/03/03 06:53:07;;;;;;;41.87;27.77;;;5.10;99.90;;;5.31;59.65;101678.53;5096267;28;20052;-69
2022/03/03 06:55:38;;;;;;;40.87;26.40;;;5.20;99.90;;;5.27;59.85;101674.94;5078015;28;20059;-69
2022/03/03 06:58:08;;;;;;;41.50;27.92;;;5.20;99.90;;;5.32;59.04;101681.19;5096057;28;20051;-69
2022/03/03 07:00:37;;;;;;;44.83;29.27;;;5.30;99.90;;;5.23;59.82;101669.56;5095929;28;20048;-68
2022/03/03 07:03:06;;;;;;;44.23;27.80;;;5.20;99.90;;;5.29;59.30;101654.00;5095790;28;20036;-69
2022/03/03 07:05:35;;;;;;;44.97;28.43;;;5.30;99.90;;;5.62;59.39;101688.19;5095789;28;20043;-68
2022/03/03 07:08:04;;;;;;;44.03;27.83;;;5.40;99.90;;;5.86;58.79;101691.56;5095984;28;20056;-68
2022/03/03 07:10:33;;;;;;;40.30;27.77;;;5.60;99.90;;;5.82;58.81;101680.03;5095942;28;20454;-69
2022/03/03 07:13:01;;;;;;;43.20;27.55;;;5.80;99.90;;;5.91;57.92;101648.81;5095838;28;20048;-69
2022/03/03 07:15:35;;;;;;;38.78;26.92;;;6.00;99.90;;;6.25;57.68;101700.50;5095841;28;20046;-68
2022/03/03 07:18:10;;;;;;;45.13;28.27;;;6.10;99.90;;;6.18;57.62;101667.94;5077797;28;20040;-69
2022/03/03 07:20:48;;;;;;;39.22;26.30;;;6.30;99.90;;;6.64;57.25;101703.25;5095584;28;20044;-69
2022/03/03 07:23:30;;;;;;;42.13;28.35;;;6.50;99.90;;;6.60;56.68;101698.78;5095692;28;20367;-68
2022/03/03 07:26:01;;;;;;;44.92;27.98;;;6.50;99.90;;;6.21;57.44;101689.00;5095392;28;20412;-68
2022/03/03 07:28:31;;;;;;;37.78;26.10;;;6.20;99.90;;;6.32;57.39;101707.69;5095274;28;20040;-69
2022/03/03 07:31:03;;;;;;;39.38;26.75;;;6.30;99.90;;;6.68;56.89;101707.75;5095440;28;20512;-69
2022/03/03 07:33:49;;;;;;;38.05;27.08;;;6.50;99.90;;;6.85;55.93;101711.66;5077444;28;20371;-67
2022/03/03 07:36:21;;;;;;;39.90;25.80;;;6.70;99.90;;;6.67;56.42;101708.59;5095578;28;20044;-68
2022/03/03 07:38:58;;;;;;;46.63;27.38;;;6.50;99.90;;;6.69;56.31;101710.41;5095250;28;20048;-69
2022/03/03 07:41:29;;;;;;;39.83;26.55;;;6.60;99.90;;;6.65;56.92;101691.88;5095232;28;20044;-65
2022/03/03 07:44:00;;;;;;;40.28;26.60;;;6.60;99.90;;;7.00;55.83;101712.94;5095345;28;20459;-69
2022/03/03 07:46:30;;;;;;;36.97;26.33;;;6.80;99.90;;;6.93;56.36;101712.75;5095127;28;20374;-68
2022/03/03 07:49:00;;;;;;;37.30;25.67;;;6.70;99.90;;;6.86;55.98;101710.81;5076662;28;20044;-72
2022/03/03 07:51:29;;;;;;;37.30;27.30;;;6.80;99.90;;;6.49;56.89;101708.09;5076928;28;20541;-68
2022/03/03 07:53:57;;;;;;;39.33;27.15;;;6.50;99.90;;;6.59;56.43;101702.25;5094262;28;20056;-67
2022/03/03 07:56:29;;;;;;;40.70;26.15;;;6.50;99.90;;;6.60;56.38;101709.28;5093703;28;20048;-62
2022/03/03 07:59:05;;;;;;;56.42;27.42;;;6.50;99.90;;;6.66;56.77;101712.06;5094975;28;20119;-69
2022/03/03 08:01:36;;;;;;;39.90;25.35;;;6.50;99.90;;;6.85;55.66;101702.00;5077048;28;20070;-67
2022/03/03 08:04:05;;;;;;;41.40;26.67;;;6.80;99.90;;;6.62;55.96;101715.47;5095341;28;20459;-67
2022/03/03 08:06:35;;;;;;;40.65;27.30;;;6.60;99.90;;;6.75;55.70;101707.03;5094697;28;20505;-66
2022/03/03 08:09:04;;;;;;;40.97;26.00;;;6.70;99.90;;;7.08;55.43;101711.34;5094483;28;20071;-66
2022/03/03 08:11:33;;;;;;;39.15;26.10;;;6.80;99.90;;;6.92;55.39;101716.22;5094578;28;20051;-65
2022/03/03 08:14:03;;;;;;;40.83;26.73;;;6.90;99.90;;;6.74;56.24;101713.13;5094544;28;20052;-69
2022/03/03 08:16:32;;;;;;;34.03;25.52;;;6.60;99.90;;;6.97;55.51;101709.31;5094834;28;20036;-70
2022/03/03 08:19:05;;;;;;;35.90;26.20;;;6.70;99.90;;;6.95;55.76;101711.03;5095034;28;20051;-70
2022/03/03 08:21:37;;;;;;;41.65;26.58;;;6.70;99.90;;;7.40;54.75;101711.16;5094280;28;20051;-69
2022/03/03 08:24:06;;;;;;;36.20;25.80;;;7.10;99.90;;;7.08;55.11;101713.09;5094685;28;20448;-70
2022/03/03 08:26:36;;;;;;;38.50;28.25;;;6.90;99.90;;;6.93;55.06;101681.19;5094316;28;20524;-70
2022/03/03 08:29:05;;;;;;;39.72;26.42;;;6.90;99.90;;;6.68;55.93;101713.00;5094275;28;20101;-70
2022/03/03 08:31:38;;;;;;;41.30;25.88;;;6.60;99.90;;;7.03;56.13;101712.97;5094154;28;20177;-71
2022/03/03 08:34:16;;;;;;;39.53;27.30;;;6.70;99.90;;;7.08;55.82;101703.44;5094272;28;20135;-71
2022/03/03 08:36:49;;;;;;;36.33;25.30;;;7.00;99.90;;;7.37;53.89;101709.38;5076270;28;20101;-69
2022/03/03 08:39:21;;;;;;;33.88;24.88;;;7.20;99.90;;;7.63;53.86;101715.19;5094508;28;20056;-71
2022/03/03 08:41:55;;;;;;;36.10;26.15;;;7.40;99.90;;;7.84;53.30;101718.28;5093982;28;20101;-70
2022/03/03 08:44:45;;;;;;;36.30;25.67;;;7.60;99.90;;;7.60;53.67;101702.88;5093969;28;20044;-71
2022/03/03 08:47:15;;;;;;;37.50;25.30;;;7.50;99.90;;;7.71;53.25;101721.50;5094069;28;20055;-71
2022/03/03 08:49:48;;;;;;;39.97;26.77;;;7.50;99.90;;;7.50;54.55;101724.56;5094084;28;20118;-71
2022/03/03 08:52:17;;;;;;;36.28;26.40;;;7.40;99.90;;;7.62;53.75;101695.00;5093890;28;20044;-69
2022/03/03 08:54:46;;;;;;;37.03;24.53;;;7.50;99.90;;;7.78;51.73;101713.75;5093684;28;20044;-69
2022/03/03 08:57:14;;;;;;;36.78;24.50;;;7.70;99.90;;;8.01;52.40;101725.63;5093945;28;20475;-71
2022/03/03 08:59:42;;;;;;;32.05;23.90;;;7.70;99.90;;;8.21;51.75;101724.28;5093947;28;20043;-71
2022/03/03 09:02:16;;;;;;;32.30;25.65;;;8.00;99.90;;;8.19;52.43;101730.38;5093872;28;20454;-71
2022/03/03 09:04:47;;;;;;;32.85;24.02;;;8.00;99.90;;;7.79;52.66;101733.09;5094175;28;20382;-70
2022/03/03 09:07:16;;;;;;;36.25;25.75;;;7.70;99.90;;;8.12;54.07;101736.41;5093822;28;20044;-71
2022/03/03 09:09:45;;;;;;;32.75;25.25;;;7.90;99.90;;;8.47;52.13;101734.44;5093929;28;20066;-71
2022/03/03 09:12:13;;;;;;;33.38;24.67;;;8.20;99.90;;;8.27;50.43;101735.81;5075711;28;20048;-71
2022/03/03 09:14:42;;;;;;;32.75;23.58;;;8.20;99.90;;;7.91;51.97;101736.88;5093499;28;20044;-71
2022/03/03 09:17:11;;;;;;;34.88;24.48;;;7.80;99.90;;;8.50;51.07;101723.94;5093803;28;20052;-71
2022/03/03 09:19:39;;;;;;;34.42;24.25;;;8.30;99.90;;;8.71;50.31;101740.16;5093485;28;20453;-71
2022/03/03 09:22:09;;;;;;;33.72;25.23;;;8.50;99.90;;;8.50;49.32;101748.56;5093456;28;20093;-71
2022/03/03 09:24:37;;;;;;;35.55;23.63;;;8.40;99.90;;;8.29;49.64;101742.00;5094091;28;20109;-71
2022/03/03 09:27:06;;;;;;;34.92;23.95;;;8.10;99.90;;;8.55;50.31;101740.75;5093577;28;20040;-71
2022/03/03 09:29:35;;;;;;;33.60;23.75;;;8.30;99.90;;;8.33;50.31;101743.84;5093376;28;20435;-71
2022/03/03 09:32:07;;;;;;;37.65;25.15;;;8.20;99.90;;;8.36;49.99;101743.91;5093566;28;20048;-71
2022/03/03 09:34:35;;;;;;;32.35;24.10;;;8.10;99.90;;;8.48;50.79;101733.59;5093157;28;20079;-71
2022/03/03 09:37:04;;;;;;;32.30;23.45;;;8.20;99.90;;;8.63;48.93;101737.38;5093480;28;20085;-71
2022/03/03 09:39:34;;;;;;;39.45;26.48;;;8.40;99.90;;;8.81;50.61;101732.41;5093376;28;20063;-72
2022/03/03 09:42:03;;;;;;;32.90;24.17;;;8.50;99.90;;;9.13;49.54;101735.56;5093108;28;20417;-71
2022/03/03 09:44:31;;;;;;;38.75;25.88;;;8.90;99.90;;;9.40;49.43;101727.16;5092935;28;20048;-71
2022/03/03 09:47:00;;;;;;;35.60;22.58;;;9.10;99.90;;;9.16;48.69;101732.06;5093221;28;20505;-71
2022/03/03 09:49:29;;;;;;;34.17;22.45;;;9.00;99.90;;;9.44;48.48;101728.97;5093073;28;20113;-71
2022/03/03 09:51:58;;;;;;;30.80;23.05;;;9.20;99.90;;;9.51;48.46;101723.81;5092763;28;20044;-71
2022/03/03 09:54:26;;;;;;;34.00;22.90;;;9.30;99.90;;;9.43;48.01;101722.81;5092998;28;20517;-71
2022/03/03 09:56:56;;;;;;;29.95;21.52;;;9.30;99.90;;;9.64;47.83;101724.88;5092929;28;20074;-70
2022/03/03 09:59:25;;;;;;;31.90;21.60;;;9.50;99.90;;;9.86;46.15;101718.97;5093412;28;20051;-70
2022/03/03 10:02:03;;;;;;;32.60;21.88;;;9.60;99.90;;;9.66;48.79;101725.75;5093391;28;20476;-71
2022/03/03 10:04:33;;;;;;;31.52;22.52;;;9.60;99.90;;;9.39;46.56;101735.97;5093230;28;20071;-70
2022/03/03 10:07:05;;;;;;;29.55;20.92;;;9.20;99.90;;;9.09;47.38;101700.34;5092595;28;20079;-70
2022/03/03 10:09:59;;;;;;;29.30;20.75;;;9.10;99.90;;;9.60;46.28;101731.84;5092663;28;20044;-72
2022/03/03 10:12:42;;;;;;;29.35;21.48;;;9.30;99.90;;;9.49;47.36;101728.19;5074867;28;20052;-71
2022/03/03 10:15:14;;;;;;;29.92;22.00;;;9.30;99.90;;;10.34;46.35;101729.22;5092949;28;20090;-71
2022/03/03 10:17:43;;;;;;;29.88;21.05;;;9.90;99.90;;;10.00;45.12;101733.25;5096896;28;20448;-70
2022/03/03 10:20:12;;;;;;;32.75;21.52;;;9.90;99.90;;;9.86;46.03;101722.50;5096859;28;20044;-70
2022/03/03 10:22:47;;;;;;;27.10;20.95;;;9.70;99.90;;;9.82;45.58;101711.88;5097145;28;20436;-70
2022/03/03 10:25:29;;;;;;;31.08;21.80;;;9.70;99.90;;;9.90;45.54;101721.69;5096843;28;20071;-70